Haltom City, Texas
Current Conditions -  °F | °C
As of 2:53 AM on Sunday 23 Nov 2014 (Local Time) from KFTW Reporting Station
Clear Clear  
Wind Chill: 55°   Ceiling: Unl
Heat Index: 55°   Visibility: 10mi
Dew Point: 53°   Wind: 5mph
Humidity: 93%   Direction: 210°SSW
Pressure: 29.63"   Gusts: NA
Location:  32.81°N, 97.27°W
Report Text: KFTW 230853Z 21004KT 10SM CLR 13/12 A2963 RMK AO2 SLP029 T01280117 56011
Loading
Personal Weather Stations






























Interactive Weather Map New forecast layout! Learn more

10-Day Weather Forecast

Advertisements
Track Severe Weather on mobile